sensor_id;sensor_type;location;lat;lon;timestamp;P1;durP1;ratioP1;P2;durP2;ratioP2
69789;SDS011;57064;52.046;4.800;2023-02-28T00:00:27;9.75;;;3.20;;
69789;SDS011;57064;52.046;4.800;2023-02-28T00:02:53;6.05;;;3.22;;
69789;SDS011;57064;52.046;4.800;2023-02-28T00:05:20;8.23;;;3.00;;
69789;SDS011;57064;52.046;4.800;2023-02-28T00:07:48;4.05;;;2.53;;
69789;SDS011;57064;52.046;4.800;2023-02-28T00:10:16;6.43;;;2.55;;
69789;SDS011;57064;52.046;4.800;2023-02-28T00:12:46;10.68;;;3.92;;
69789;SDS011;57064;52.046;4.800;2023-02-28T00:15:12;4.82;;;2.80;;
69789;SDS011;57064;52.046;4.800;2023-02-28T00:17:38;4.50;;;2.53;;
69789;SDS011;57064;52.046;4.800;2023-02-28T00:20:05;5.55;;;3.03;;
69789;SDS011;57064;52.046;4.800;2023-02-28T00:22:33;4.38;;;2.58;;
69789;SDS011;57064;52.046;4.800;2023-02-28T00:24:59;5.50;;;3.08;;
69789;SDS011;57064;52.046;4.800;2023-02-28T00:27:25;4.95;;;2.08;;
69789;SDS011;57064;52.046;4.800;2023-02-28T00:29:51;9.60;;;3.35;;
69789;SDS011;57064;52.046;4.800;2023-02-28T00:32:19;6.30;;;2.60;;
69789;SDS011;57064;52.046;4.800;2023-02-28T00:34:45;3.92;;;2.55;;
69789;SDS011;57064;52.046;4.800;2023-02-28T00:37:11;4.75;;;2.60;;
69789;SDS011;57064;52.046;4.800;2023-02-28T00:39:37;5.93;;;2.50;;
69789;SDS011;57064;52.046;4.800;2023-02-28T00:42:04;7.20;;;2.85;;
69789;SDS011;57064;52.046;4.800;2023-02-28T00:44:30;5.50;;;2.35;;
69789;SDS011;57064;52.046;4.800;2023-02-28T00:46:57;5.82;;;3.17;;
69789;SDS011;57064;52.046;4.800;2023-02-28T00:49:23;5.57;;;2.53;;
69789;SDS011;57064;52.046;4.800;2023-02-28T00:51:50;10.20;;;2.97;;
69789;SDS011;57064;52.046;4.800;2023-02-28T00:54:16;7.75;;;2.70;;
69789;SDS011;57064;52.046;4.800;2023-02-28T00:56:43;6.55;;;2.47;;
69789;SDS011;57064;52.046;4.800;2023-02-28T00:59:10;8.18;;;2.38;;
69789;SDS011;57064;52.046;4.800;2023-02-28T01:01:40;5.70;;;2.10;;
69789;SDS011;57064;52.046;4.800;2023-02-28T01:04:07;5.65;;;2.67;;
69789;SDS011;57064;52.046;4.800;2023-02-28T01:06:33;7.55;;;2.85;;
69789;SDS011;57064;52.046;4.800;2023-02-28T01:09:00;7.80;;;2.65;;
69789;SDS011;57064;52.046;4.800;2023-02-28T01:11:27;9.20;;;2.83;;
69789;SDS011;57064;52.046;4.800;2023-02-28T01:13:53;4.88;;;2.22;;
69789;SDS011;57064;52.046;4.800;2023-02-28T01:16:19;5.43;;;2.58;;
69789;SDS011;57064;52.046;4.800;2023-02-28T01:18:45;5.05;;;2.85;;
69789;SDS011;57064;52.046;4.800;2023-02-28T01:21:12;4.90;;;3.17;;
69789;SDS011;57064;52.046;4.800;2023-02-28T01:23:40;7.65;;;2.55;;
69789;SDS011;57064;52.046;4.800;2023-02-28T01:26:07;4.80;;;2.47;;
69789;SDS011;57064;52.046;4.800;2023-02-28T01:28:35;7.28;;;4.05;;
69789;SDS011;57064;52.046;4.800;2023-02-28T01:31:01;7.68;;;3.08;;
69789;SDS011;57064;52.046;4.800;2023-02-28T01:33:27;7.20;;;2.75;;
69789;SDS011;57064;52.046;4.800;2023-02-28T01:35:58;7.45;;;2.83;;
69789;SDS011;57064;52.046;4.800;2023-02-28T01:38:25;8.02;;;3.20;;
69789;SDS011;57064;52.046;4.800;2023-02-28T01:40:51;13.05;;;2.95;;
69789;SDS011;57064;52.046;4.800;2023-02-28T01:45:47;4.40;;;3.05;;
69789;SDS011;57064;52.046;4.800;2023-02-28T01:48:13;8.98;;;3.20;;
69789;SDS011;57064;52.046;4.800;2023-02-28T01:50:41;5.57;;;2.80;;
69789;SDS011;57064;52.046;4.800;2023-02-28T01:53:10;4.38;;;2.97;;
69789;SDS011;57064;52.046;4.800;2023-02-28T01:55:40;11.50;;;3.35;;
69789;SDS011;57064;52.046;4.800;2023-02-28T01:58:12;9.13;;;2.85;;
69789;SDS011;57064;52.046;4.800;2023-02-28T02:00:39;4.30;;;2.22;;
69789;SDS011;57064;52.046;4.800;2023-02-28T02:03:11;9.18;;;2.83;;
69789;SDS011;57064;52.046;4.800;2023-02-28T02:05:40;8.43;;;2.53;;
69789;SDS011;57064;52.046;4.800;2023-02-28T02:08:08;5.70;;;2.80;;
69789;SDS011;57064;52.046;4.800;2023-02-28T02:10:42;6.47;;;2.50;;
69789;SDS011;57064;52.046;4.800;2023-02-28T02:32:52;6.10;;;3.75;;
69789;SDS011;57064;52.046;4.800;2023-02-28T02:44:09;7.63;;;3.15;;
69789;SDS011;57064;52.046;4.800;2023-02-28T02:46:43;6.05;;;3.08;;
69789;SDS011;57064;52.046;4.800;2023-02-28T02:49:21;7.18;;;3.22;;
69789;SDS011;57064;52.046;4.800;2023-02-28T02:51:53;8.52;;;3.55;;
69789;SDS011;57064;52.046;4.800;2023-02-28T02:54:22;5.95;;;3.53;;
69789;SDS011;57064;52.046;4.800;2023-02-28T02:56:53;8.27;;;3.58;;
69789;SDS011;57064;52.046;4.800;2023-02-28T02:59:25;9.48;;;3.40;;
69789;SDS011;57064;52.046;4.800;2023-02-28T03:01:55;6.20;;;3.25;;
69789;SDS011;57064;52.046;4.800;2023-02-28T03:04:28;8.32;;;3.60;;
69789;SDS011;57064;52.046;4.800;2023-02-28T03:06:58;6.38;;;3.22;;
69789;SDS011;57064;52.046;4.800;2023-02-28T03:09:25;6.85;;;3.38;;
69789;SDS011;57064;52.046;4.800;2023-02-28T03:11:52;7.13;;;3.38;;
69789;SDS011;57064;52.046;4.800;2023-02-28T03:17:38;7.38;;;3.75;;
69789;SDS011;57064;52.046;4.800;2023-02-28T03:23:21;6.57;;;3.35;;
69789;SDS011;57064;52.046;4.800;2023-02-28T03:25:56;6.18;;;3.50;;
69789;SDS011;57064;52.046;4.800;2023-02-28T03:28:41;6.28;;;2.97;;
69789;SDS011;57064;52.046;4.800;2023-02-28T03:31:27;8.70;;;4.18;;
69789;SDS011;57064;52.046;4.800;2023-02-28T03:33:58;8.45;;;3.63;;
69789;SDS011;57064;52.046;4.800;2023-02-28T03:36:29;8.88;;;3.50;;
69789;SDS011;57064;52.046;4.800;2023-02-28T03:39:08;6.65;;;3.83;;
69789;SDS011;57064;52.046;4.800;2023-02-28T03:41:45;6.43;;;3.20;;
69789;SDS011;57064;52.046;4.800;2023-02-28T03:44:20;10.65;;;4.30;;
69789;SDS011;57064;52.046;4.800;2023-02-28T03:46:56;9.13;;;3.67;;
69789;SDS011;57064;52.046;4.800;2023-02-28T03:49:53;7.35;;;3.15;;
69789;SDS011;57064;52.046;4.800;2023-02-28T03:52:25;8.63;;;3.40;;
69789;SDS011;57064;52.046;4.800;2023-02-28T04:00:19;11.20;;;3.60;;
69789;SDS011;57064;52.046;4.800;2023-02-28T04:02:49;6.00;;;3.88;;
69789;SDS011;57064;52.046;4.800;2023-02-28T04:05:18;6.90;;;3.70;;
69789;SDS011;57064;52.046;4.800;2023-02-28T04:07:45;6.45;;;3.92;;
69789;SDS011;57064;52.046;4.800;2023-02-28T04:10:11;9.18;;;5.18;;
69789;SDS011;57064;52.046;4.800;2023-02-28T04:12:39;10.50;;;4.32;;
69789;SDS011;57064;52.046;4.800;2023-02-28T04:15:05;5.63;;;3.60;;
69789;SDS011;57064;52.046;4.800;2023-02-28T04:17:32;7.32;;;3.60;;
69789;SDS011;57064;52.046;4.800;2023-02-28T04:19:58;5.95;;;3.53;;
69789;SDS011;57064;52.046;4.800;2023-02-28T04:22:24;7.38;;;4.05;;
69789;SDS011;57064;52.046;4.800;2023-02-28T04:24:53;6.82;;;3.80;;
69789;SDS011;57064;52.046;4.800;2023-02-28T04:27:19;10.65;;;3.92;;
69789;SDS011;57064;52.046;4.800;2023-02-28T04:29:46;12.93;;;5.25;;
69789;SDS011;57064;52.046;4.800;2023-02-28T04:32:12;8.38;;;4.05;;
69789;SDS011;57064;52.046;4.800;2023-02-28T04:34:38;8.70;;;4.40;;
69789;SDS011;57064;52.046;4.800;2023-02-28T04:37:05;10.32;;;4.68;;
69789;SDS011;57064;52.046;4.800;2023-02-28T04:39:34;7.88;;;4.25;;
69789;SDS011;57064;52.046;4.800;2023-02-28T04:42:01;7.50;;;4.38;;
69789;SDS011;57064;52.046;4.800;2023-02-28T04:44:27;9.15;;;4.07;;
69789;SDS011;57064;52.046;4.800;2023-02-28T04:46:53;10.27;;;4.72;;
69789;SDS011;57064;52.046;4.800;2023-02-28T04:49:19;9.32;;;5.32;;
69789;SDS011;57064;52.046;4.800;2023-02-28T04:51:45;8.85;;;4.75;;
69789;SDS011;57064;52.046;4.800;2023-02-28T04:54:11;10.43;;;5.00;;
69789;SDS011;57064;52.046;4.800;2023-02-28T04:56:38;11.07;;;5.40;;
69789;SDS011;57064;52.046;4.800;2023-02-28T04:59:04;9.57;;;5.30;;
69789;SDS011;57064;52.046;4.800;2023-02-28T05:01:31;9.25;;;5.53;;
69789;SDS011;57064;52.046;4.800;2023-02-28T05:04:00;8.48;;;5.88;;
69789;SDS011;57064;52.046;4.800;2023-02-28T05:06:27;13.02;;;6.18;;
69789;SDS011;57064;52.046;4.800;2023-02-28T05:08:55;10.90;;;6.10;;
69789;SDS011;57064;52.046;4.800;2023-02-28T05:11:26;12.80;;;6.47;;
69789;SDS011;57064;52.046;4.800;2023-02-28T05:13:58;12.77;;;6.60;;
69789;SDS011;57064;52.046;4.800;2023-02-28T05:16:24;14.65;;;6.93;;
69789;SDS011;57064;52.046;4.800;2023-02-28T05:18:50;11.10;;;6.07;;
69789;SDS011;57064;52.046;4.800;2023-02-28T05:21:29;12.65;;;6.32;;
69789;SDS011;57064;52.046;4.800;2023-02-28T05:24:00;11.48;;;5.78;;
69789;SDS011;57064;52.046;4.800;2023-02-28T05:26:31;10.88;;;6.28;;
69789;SDS011;57064;52.046;4.800;2023-02-28T05:29:00;9.55;;;5.78;;
69789;SDS011;57064;52.046;4.800;2023-02-28T05:31:26;10.82;;;5.47;;
69789;SDS011;57064;52.046;4.800;2023-02-28T05:33:52;14.93;;;7.30;;
69789;SDS011;57064;52.046;4.800;2023-02-28T05:36:19;12.38;;;7.05;;
69789;SDS011;57064;52.046;4.800;2023-02-28T05:38:46;11.20;;;6.40;;
69789;SDS011;57064;52.046;4.800;2023-02-28T05:41:13;11.70;;;6.18;;
69789;SDS011;57064;52.046;4.800;2023-02-28T05:43:39;9.63;;;5.30;;
69789;SDS011;57064;52.046;4.800;2023-02-28T05:46:06;11.55;;;5.70;;
69789;SDS011;57064;52.046;4.800;2023-02-28T05:48:34;10.20;;;4.82;;
69789;SDS011;57064;52.046;4.800;2023-02-28T05:51:01;10.10;;;5.22;;
69789;SDS011;57064;52.046;4.800;2023-02-28T05:53:28;7.32;;;5.15;;
69789;SDS011;57064;52.046;4.800;2023-02-28T05:55:54;11.10;;;5.47;;
69789;SDS011;57064;52.046;4.800;2023-02-28T05:58:21;7.30;;;4.40;;
69789;SDS011;57064;52.046;4.800;2023-02-28T06:00:47;12.55;;;5.30;;
69789;SDS011;57064;52.046;4.800;2023-02-28T06:03:14;7.10;;;3.40;;
69789;SDS011;57064;52.046;4.800;2023-02-28T06:05:40;5.75;;;3.55;;
69789;SDS011;57064;52.046;4.800;2023-02-28T06:08:06;8.32;;;4.07;;
69789;SDS011;57064;52.046;4.800;2023-02-28T06:10:35;8.07;;;3.63;;
69789;SDS011;57064;52.046;4.800;2023-02-28T06:13:02;7.13;;;3.67;;
69789;SDS011;57064;52.046;4.800;2023-02-28T06:15:29;9.32;;;3.72;;
69789;SDS011;57064;52.046;4.800;2023-02-28T06:17:55;9.40;;;3.92;;
69789;SDS011;57064;52.046;4.800;2023-02-28T06:20:22;8.18;;;4.70;;
69789;SDS011;57064;52.046;4.800;2023-02-28T06:22:48;9.38;;;4.68;;
69789;SDS011;57064;52.046;4.800;2023-02-28T06:25:19;8.82;;;4.07;;
69789;SDS011;57064;52.046;4.800;2023-02-28T06:27:45;8.43;;;4.50;;
69789;SDS011;57064;52.046;4.800;2023-02-28T06:30:12;8.43;;;4.18;;
69789;SDS011;57064;52.046;4.800;2023-02-28T06:32:38;11.68;;;4.13;;
69789;SDS011;57064;52.046;4.800;2023-02-28T06:35:04;7.97;;;3.85;;
69789;SDS011;57064;52.046;4.800;2023-02-28T06:37:31;7.85;;;3.38;;
69789;SDS011;57064;52.046;4.800;2023-02-28T06:39:57;7.53;;;3.85;;
69789;SDS011;57064;52.046;4.800;2023-02-28T06:42:24;13.90;;;3.95;;
69789;SDS011;57064;52.046;4.800;2023-02-28T06:44:56;6.20;;;3.75;;
69789;SDS011;57064;52.046;4.800;2023-02-28T06:47:24;7.47;;;4.18;;
69789;SDS011;57064;52.046;4.800;2023-02-28T06:49:50;8.93;;;4.10;;
69789;SDS011;57064;52.046;4.800;2023-02-28T06:52:16;5.85;;;4.05;;
69789;SDS011;57064;52.046;4.800;2023-02-28T06:54:44;12.70;;;4.15;;
69789;SDS011;57064;52.046;4.800;2023-02-28T06:57:10;6.68;;;4.68;;
69789;SDS011;57064;52.046;4.800;2023-02-28T06:59:36;7.95;;;4.72;;
69789;SDS011;57064;52.046;4.800;2023-02-28T07:02:02;12.65;;;4.78;;
69789;SDS011;57064;52.046;4.800;2023-02-28T07:04:28;7.93;;;4.45;;
69789;SDS011;57064;52.046;4.800;2023-02-28T07:06:54;11.82;;;4.97;;
69789;SDS011;57064;52.046;4.800;2023-02-28T07:09:22;9.63;;;4.95;;
69789;SDS011;57064;52.046;4.800;2023-02-28T07:11:48;8.57;;;4.82;;
69789;SDS011;57064;52.046;4.800;2023-02-28T07:14:14;7.68;;;5.50;;
69789;SDS011;57064;52.046;4.800;2023-02-28T07:16:40;11.80;;;5.55;;
69789;SDS011;57064;52.046;4.800;2023-02-28T07:19:06;10.80;;;5.88;;
69789;SDS011;57064;52.046;4.800;2023-02-28T07:21:32;7.45;;;5.28;;
69789;SDS011;57064;52.046;4.800;2023-02-28T07:23:58;9.27;;;5.10;;
69789;SDS011;57064;52.046;4.800;2023-02-28T07:26:24;7.32;;;5.05;;
69789;SDS011;57064;52.046;4.800;2023-02-28T07:28:50;11.57;;;5.55;;
69789;SDS011;57064;52.046;4.800;2023-02-28T07:31:16;9.13;;;5.80;;
69789;SDS011;57064;52.046;4.800;2023-02-28T07:33:43;12.02;;;5.53;;
69789;SDS011;57064;52.046;4.800;2023-02-28T07:36:10;8.70;;;4.72;;
69789;SDS011;57064;52.046;4.800;2023-02-28T07:38:47;8.93;;;5.43;;
69789;SDS011;57064;52.046;4.800;2023-02-28T07:41:18;8.85;;;4.35;;
69789;SDS011;57064;52.046;4.800;2023-02-28T07:43:46;10.48;;;4.68;;
69789;SDS011;57064;52.046;4.800;2023-02-28T07:46:13;10.02;;;4.90;;
69789;SDS011;57064;52.046;4.800;2023-02-28T07:48:41;12.60;;;5.15;;
69789;SDS011;57064;52.046;4.800;2023-02-28T07:51:07;10.13;;;5.72;;
69789;SDS011;57064;52.046;4.800;2023-02-28T07:53:34;14.60;;;6.43;;
69789;SDS011;57064;52.046;4.800;2023-02-28T07:56:00;11.90;;;6.18;;
69789;SDS011;57064;52.046;4.800;2023-02-28T07:58:27;14.60;;;8.00;;
69789;SDS011;57064;52.046;4.800;2023-02-28T08:00:54;12.68;;;7.75;;
69789;SDS011;57064;52.046;4.800;2023-02-28T08:03:21;14.35;;;7.53;;
69789;SDS011;57064;52.046;4.800;2023-02-28T08:05:48;15.40;;;8.55;;
69789;SDS011;57064;52.046;4.800;2023-02-28T08:08:14;14.80;;;7.13;;
69789;SDS011;57064;52.046;4.800;2023-02-28T08:10:42;14.82;;;7.93;;
69789;SDS011;57064;52.046;4.800;2023-02-28T08:13:08;16.42;;;8.98;;
69789;SDS011;57064;52.046;4.800;2023-02-28T08:15:34;21.20;;;9.77;;
69789;SDS011;57064;52.046;4.800;2023-02-28T08:18:01;16.63;;;9.20;;
69789;SDS011;57064;52.046;4.800;2023-02-28T08:20:27;12.77;;;8.48;;
69789;SDS011;57064;52.046;4.800;2023-02-28T08:22:53;19.48;;;9.18;;
69789;SDS011;57064;52.046;4.800;2023-02-28T08:25:19;19.00;;;9.52;;
69789;SDS011;57064;52.046;4.800;2023-02-28T08:27:46;20.88;;;9.93;;
69789;SDS011;57064;52.046;4.800;2023-02-28T08:30:12;19.40;;;9.98;;
69789;SDS011;57064;52.046;4.800;2023-02-28T08:32:39;15.63;;;8.88;;
69789;SDS011;57064;52.046;4.800;2023-02-28T08:35:07;19.60;;;9.55;;
69789;SDS011;57064;52.046;4.800;2023-02-28T08:37:36;17.77;;;8.68;;
69789;SDS011;57064;52.046;4.800;2023-02-28T08:40:02;14.15;;;7.82;;
69789;SDS011;57064;52.046;4.800;2023-02-28T08:42:29;18.98;;;9.00;;
69789;SDS011;57064;52.046;4.800;2023-02-28T08:44:56;14.95;;;8.65;;
69789;SDS011;57064;52.046;4.800;2023-02-28T08:47:22;15.95;;;8.77;;
69789;SDS011;57064;52.046;4.800;2023-02-28T08:49:48;15.88;;;9.40;;
69789;SDS011;57064;52.046;4.800;2023-02-28T08:52:14;19.63;;;9.48;;
69789;SDS011;57064;52.046;4.800;2023-02-28T08:54:40;16.65;;;8.88;;
69789;SDS011;57064;52.046;4.800;2023-02-28T08:57:07;15.48;;;9.48;;
69789;SDS011;57064;52.046;4.800;2023-02-28T08:59:33;17.17;;;9.38;;
69789;SDS011;57064;52.046;4.800;2023-02-28T09:01:59;16.45;;;9.68;;
69789;SDS011;57064;52.046;4.800;2023-02-28T09:04:25;16.20;;;8.45;;
69789;SDS011;57064;52.046;4.800;2023-02-28T09:06:51;20.25;;;8.80;;
69789;SDS011;57064;52.046;4.800;2023-02-28T09:09:17;17.02;;;8.85;;
69789;SDS011;57064;52.046;4.800;2023-02-28T09:11:43;18.70;;;9.10;;
69789;SDS011;57064;52.046;4.800;2023-02-28T09:14:09;15.65;;;7.93;;
69789;SDS011;57064;52.046;4.800;2023-02-28T09:16:35;14.95;;;8.00;;
69789;SDS011;57064;52.046;4.800;2023-02-28T09:19:01;17.42;;;7.93;;
69789;SDS011;57064;52.046;4.800;2023-02-28T09:21:27;15.63;;;9.13;;
69789;SDS011;57064;52.046;4.800;2023-02-28T09:23:53;18.48;;;9.10;;
69789;SDS011;57064;52.046;4.800;2023-02-28T09:26:24;17.60;;;9.30;;
69789;SDS011;57064;52.046;4.800;2023-02-28T09:28:52;14.95;;;7.95;;
69789;SDS011;57064;52.046;4.800;2023-02-28T09:31:20;16.52;;;9.50;;
69789;SDS011;57064;52.046;4.800;2023-02-28T09:33:48;20.85;;;8.73;;
69789;SDS011;57064;52.046;4.800;2023-02-28T09:36:15;19.25;;;8.63;;
69789;SDS011;57064;52.046;4.800;2023-02-28T09:38:42;19.13;;;9.32;;
69789;SDS011;57064;52.046;4.800;2023-02-28T09:41:12;16.42;;;9.02;;
69789;SDS011;57064;52.046;4.800;2023-02-28T09:43:47;15.63;;;8.68;;
69789;SDS011;57064;52.046;4.800;2023-02-28T09:48:45;18.60;;;9.00;;
69789;SDS011;57064;52.046;4.800;2023-02-28T09:54:15;16.27;;;8.60;;
69789;SDS011;57064;52.046;4.800;2023-02-28T10:02:21;13.20;;;7.70;;
69789;SDS011;57064;52.046;4.800;2023-02-28T10:05:10;14.20;;;7.10;;
69789;SDS011;57064;52.046;4.800;2023-02-28T10:12:56;10.35;;;5.68;;
69789;SDS011;57064;52.046;4.800;2023-02-28T10:15:25;8.20;;;5.35;;
69789;SDS011;57064;52.046;4.800;2023-02-28T10:17:57;8.85;;;4.63;;
69789;SDS011;57064;52.046;4.800;2023-02-28T10:20:29;8.70;;;4.60;;
69789;SDS011;57064;52.046;4.800;2023-02-28T10:25:28;5.60;;;3.95;;
69789;SDS011;57064;52.046;4.800;2023-02-28T10:27:58;6.05;;;2.90;;
69789;SDS011;57064;52.046;4.800;2023-02-28T10:30:33;3.90;;;2.70;;
69789;SDS011;57064;52.046;4.800;2023-02-28T10:33:01;4.43;;;2.55;;
69789;SDS011;57064;52.046;4.800;2023-02-28T10:35:27;5.80;;;2.90;;
69789;SDS011;57064;52.046;4.800;2023-02-28T10:37:55;4.07;;;2.72;;
69789;SDS011;57064;52.046;4.800;2023-02-28T10:42:55;4.68;;;2.78;;
69789;SDS011;57064;52.046;4.800;2023-02-28T10:55:42;3.03;;;1.70;;
69789;SDS011;57064;52.046;4.800;2023-02-28T10:58:21;3.13;;;2.28;;
69789;SDS011;57064;52.046;4.800;2023-02-28T11:00:53;4.00;;;2.05;;
69789;SDS011;57064;52.046;4.800;2023-02-28T11:03:30;3.45;;;1.95;;
69789;SDS011;57064;52.046;4.800;2023-02-28T11:05:58;3.95;;;2.00;;
69789;SDS011;57064;52.046;4.800;2023-02-28T11:08:30;6.53;;;2.10;;
69789;SDS011;57064;52.046;4.800;2023-02-28T11:10:58;3.17;;;2.10;;
69789;SDS011;57064;52.046;4.800;2023-02-28T11:13:30;3.80;;;2.33;;
69789;SDS011;57064;52.046;4.800;2023-02-28T11:15:59;4.07;;;2.13;;
69789;SDS011;57064;52.046;4.800;2023-02-28T11:18:35;2.80;;;2.10;;
69789;SDS011;57064;52.046;4.800;2023-02-28T11:21:26;3.03;;;2.20;;
69789;SDS011;57064;52.046;4.800;2023-02-28T11:26:45;3.22;;;1.90;;
69789;SDS011;57064;52.046;4.800;2023-02-28T11:29:27;2.40;;;2.05;;
69789;SDS011;57064;52.046;4.800;2023-02-28T11:32:16;3.42;;;1.92;;
69789;SDS011;57064;52.046;4.800;2023-02-28T11:34:46;3.33;;;1.80;;
69789;SDS011;57064;52.046;4.800;2023-02-28T11:37:25;4.03;;;1.90;;
69789;SDS011;57064;52.046;4.800;2023-02-28T11:39:53;4.20;;;1.92;;
69789;SDS011;57064;52.046;4.800;2023-02-28T12:18:07;2.60;;;1.92;;
69789;SDS011;57064;52.046;4.800;2023-02-28T12:20:44;3.28;;;1.80;;
69789;SDS011;57064;52.046;4.800;2023-02-28T12:29:04;3.00;;;1.88;;
69789;SDS011;57064;52.046;4.800;2023-02-28T12:31:44;3.38;;;2.00;;
69789;SDS011;57064;52.046;4.800;2023-02-28T12:34:25;5.75;;;2.00;;
69789;SDS011;57064;52.046;4.800;2023-02-28T12:37:29;2.42;;;1.77;;
69789;SDS011;57064;52.046;4.800;2023-02-28T12:40:13;1.70;;;1.50;;
69789;SDS011;57064;52.046;4.800;2023-02-28T12:42:49;4.38;;;2.15;;
69789;SDS011;57064;52.046;4.800;2023-02-28T12:45:25;3.63;;;2.30;;
69789;SDS011;57064;52.046;4.800;2023-02-28T12:50:29;4.82;;;2.15;;
69789;SDS011;57064;52.046;4.800;2023-02-28T13:00:46;4.40;;;2.40;;
69789;SDS011;57064;52.046;4.800;2023-02-28T13:09:18;3.22;;;1.83;;
69789;SDS011;57064;52.046;4.800;2023-02-28T13:11:46;3.67;;;2.13;;
69789;SDS011;57064;52.046;4.800;2023-02-28T13:14:28;3.60;;;2.15;;
69789;SDS011;57064;52.046;4.800;2023-02-28T13:19:34;4.45;;;1.60;;
69789;SDS011;57064;52.046;4.800;2023-02-28T13:25:00;2.90;;;2.00;;
69789;SDS011;57064;52.046;4.800;2023-02-28T13:27:33;3.00;;;2.00;;
69789;SDS011;57064;52.046;4.800;2023-02-28T13:33:22;4.15;;;1.85;;
69789;SDS011;57064;52.046;4.800;2023-02-28T13:38:40;2.55;;;1.60;;
69789;SDS011;57064;52.046;4.800;2023-02-28T13:46:26;2.60;;;1.70;;
69789;SDS011;57064;52.046;4.800;2023-02-28T13:48:53;2.53;;;1.52;;
69789;SDS011;57064;52.046;4.800;2023-02-28T13:54:11;2.40;;;1.55;;
69789;SDS011;57064;52.046;4.800;2023-02-28T13:56:54;4.90;;;1.85;;
69789;SDS011;57064;52.046;4.800;2023-02-28T13:59:31;2.90;;;1.63;;
69789;SDS011;57064;52.046;4.800;2023-02-28T14:02:08;3.33;;;1.42;;
69789;SDS011;57064;52.046;4.800;2023-02-28T14:07:31;3.90;;;2.30;;
69789;SDS011;57064;52.046;4.800;2023-02-28T14:10:05;2.10;;;1.27;;
69789;SDS011;57064;52.046;4.800;2023-02-28T14:18:24;4.18;;;1.67;;
69789;SDS011;57064;52.046;4.800;2023-02-28T14:20:52;2.33;;;1.65;;
69789;SDS011;57064;52.046;4.800;2023-02-28T14:23:31;4.28;;;1.67;;
69789;SDS011;57064;52.046;4.800;2023-02-28T14:37:16;4.03;;;1.65;;
69789;SDS011;57064;52.046;4.800;2023-02-28T14:39:55;3.78;;;1.80;;
69789;SDS011;57064;52.046;4.800;2023-02-28T14:42:30;6.78;;;1.60;;
69789;SDS011;57064;52.046;4.800;2023-02-28T14:45:01;2.92;;;1.50;;
69789;SDS011;57064;52.046;4.800;2023-02-28T14:47:28;4.38;;;1.58;;
69789;SDS011;57064;52.046;4.800;2023-02-28T14:49:58;2.42;;;1.52;;
69789;SDS011;57064;52.046;4.800;2023-02-28T14:52:32;3.13;;;1.60;;
69789;SDS011;57064;52.046;4.800;2023-02-28T14:54:59;3.95;;;1.60;;
69789;SDS011;57064;52.046;4.800;2023-02-28T14:57:30;2.28;;;1.52;;
69789;SDS011;57064;52.046;4.800;2023-02-28T15:00:14;2.25;;;1.63;;
69789;SDS011;57064;52.046;4.800;2023-02-28T15:02:45;3.72;;;2.25;;
69789;SDS011;57064;52.046;4.800;2023-02-28T15:07:41;3.40;;;1.65;;
69789;SDS011;57064;52.046;4.800;2023-02-28T15:10:24;3.53;;;1.70;;
69789;SDS011;57064;52.046;4.800;2023-02-28T15:15:21;3.88;;;2.50;;
69789;SDS011;57064;52.046;4.800;2023-02-28T15:17:52;2.08;;;1.60;;
69789;SDS011;57064;52.046;4.800;2023-02-28T15:20:21;4.85;;;2.05;;
69789;SDS011;57064;52.046;4.800;2023-02-28T15:22:49;0.82;;;0.63;;
69789;SDS011;57064;52.046;4.800;2023-02-28T15:25:18;6.70;;;2.05;;
69789;SDS011;57064;52.046;4.800;2023-02-28T15:27:47;2.65;;;1.80;;
69789;SDS011;57064;52.046;4.800;2023-02-28T15:30:17;3.35;;;1.90;;
69789;SDS011;57064;52.046;4.800;2023-02-28T15:35:43;3.78;;;1.90;;
69789;SDS011;57064;52.046;4.800;2023-02-28T15:38:43;4.90;;;2.42;;
69789;SDS011;57064;52.046;4.800;2023-02-28T15:41:03;4.20;;;2.20;;
69789;SDS011;57064;52.046;4.800;2023-02-28T15:43:36;4.90;;;3.08;;
69789;SDS011;57064;52.046;4.800;2023-02-28T15:46:07;3.40;;;2.53;;
69789;SDS011;57064;52.046;4.800;2023-02-28T15:48:47;3.88;;;2.50;;
69789;SDS011;57064;52.046;4.800;2023-02-28T15:51:18;3.53;;;2.25;;
69789;SDS011;57064;52.046;4.800;2023-02-28T15:53:49;4.05;;;2.65;;
69789;SDS011;57064;52.046;4.800;2023-02-28T15:56:23;4.43;;;2.67;;
69789;SDS011;57064;52.046;4.800;2023-02-28T15:58:50;5.78;;;2.83;;
69789;SDS011;57064;52.046;4.800;2023-02-28T16:01:30;8.95;;;2.67;;
69789;SDS011;57064;52.046;4.800;2023-02-28T16:04:06;5.68;;;2.58;;
69789;SDS011;57064;52.046;4.800;2023-02-28T16:07:13;5.57;;;2.45;;
69789;SDS011;57064;52.046;4.800;2023-02-28T16:09:37;4.70;;;2.95;;
69789;SDS011;57064;52.046;4.800;2023-02-28T16:12:03;3.95;;;2.80;;
69789;SDS011;57064;52.046;4.800;2023-02-28T16:14:30;3.88;;;2.92;;
69789;SDS011;57064;52.046;4.800;2023-02-28T16:17:02;3.67;;;2.55;;
69789;SDS011;57064;52.046;4.800;2023-02-28T16:19:29;6.72;;;3.53;;
69789;SDS011;57064;52.046;4.800;2023-02-28T16:21:56;5.80;;;3.33;;
69789;SDS011;57064;52.046;4.800;2023-02-28T16:24:22;7.15;;;3.50;;
69789;SDS011;57064;52.046;4.800;2023-02-28T16:26:49;5.13;;;3.00;;
69789;SDS011;57064;52.046;4.800;2023-02-28T16:29:21;3.92;;;2.97;;
69789;SDS011;57064;52.046;4.800;2023-02-28T16:31:53;7.18;;;3.83;;
69789;SDS011;57064;52.046;4.800;2023-02-28T16:34:20;5.53;;;3.28;;
69789;SDS011;57064;52.046;4.800;2023-02-28T16:36:49;4.80;;;3.20;;
69789;SDS011;57064;52.046;4.800;2023-02-28T16:39:15;5.60;;;3.38;;
69789;SDS011;57064;52.046;4.800;2023-02-28T16:41:42;4.53;;;2.80;;
69789;SDS011;57064;52.046;4.800;2023-02-28T16:44:12;5.93;;;3.25;;
69789;SDS011;57064;52.046;4.800;2023-02-28T16:46:45;7.55;;;4.00;;
69789;SDS011;57064;52.046;4.800;2023-02-28T16:49:12;6.28;;;3.65;;
69789;SDS011;57064;52.046;4.800;2023-02-28T16:51:38;5.00;;;3.33;;
69789;SDS011;57064;52.046;4.800;2023-02-28T16:54:04;6.60;;;3.67;;
69789;SDS011;57064;52.046;4.800;2023-02-28T16:56:30;5.07;;;3.85;;
69789;SDS011;57064;52.046;4.800;2023-02-28T16:58:59;6.18;;;4.00;;
69789;SDS011;57064;52.046;4.800;2023-02-28T17:01:27;4.93;;;4.03;;
69789;SDS011;57064;52.046;4.800;2023-02-28T17:03:53;6.47;;;3.97;;
69789;SDS011;57064;52.046;4.800;2023-02-28T17:06:20;5.90;;;3.92;;
69789;SDS011;57064;52.046;4.800;2023-02-28T17:08:49;6.75;;;4.05;;
69789;SDS011;57064;52.046;4.800;2023-02-28T17:11:16;6.40;;;4.40;;
69789;SDS011;57064;52.046;4.800;2023-02-28T17:13:43;6.22;;;3.75;;
69789;SDS011;57064;52.046;4.800;2023-02-28T17:16:13;6.00;;;3.70;;
69789;SDS011;57064;52.046;4.800;2023-02-28T17:18:41;4.75;;;3.78;;
69789;SDS011;57064;52.046;4.800;2023-02-28T17:21:13;5.93;;;4.15;;
69789;SDS011;57064;52.046;4.800;2023-02-28T17:23:40;7.68;;;4.30;;
69789;SDS011;57064;52.046;4.800;2023-02-28T17:26:06;7.40;;;4.10;;
69789;SDS011;57064;52.046;4.800;2023-02-28T17:28:36;8.00;;;4.35;;
69789;SDS011;57064;52.046;4.800;2023-02-28T17:31:02;8.13;;;5.00;;
69789;SDS011;57064;52.046;4.800;2023-02-28T17:33:28;9.57;;;5.05;;
69789;SDS011;57064;52.046;4.800;2023-02-28T17:35:54;10.65;;;5.15;;
69789;SDS011;57064;52.046;4.800;2023-02-28T17:38:21;8.35;;;4.90;;
69789;SDS011;57064;52.046;4.800;2023-02-28T17:40:47;8.32;;;4.82;;
69789;SDS011;57064;52.046;4.800;2023-02-28T17:43:14;9.35;;;5.10;;
69789;SDS011;57064;52.046;4.800;2023-02-28T17:45:40;9.18;;;5.63;;
69789;SDS011;57064;52.046;4.800;2023-02-28T17:48:06;7.53;;;4.47;;
69789;SDS011;57064;52.046;4.800;2023-02-28T17:50:35;6.53;;;4.82;;
69789;SDS011;57064;52.046;4.800;2023-02-28T17:53:01;8.32;;;4.63;;
69789;SDS011;57064;52.046;4.800;2023-02-28T17:55:27;7.38;;;4.65;;
69789;SDS011;57064;52.046;4.800;2023-02-28T17:57:53;7.35;;;4.82;;